sensor_id;sensor_type;location;lat;lon;timestamp;temperature;humidity
19435;DHT22;9853;50.848;4.108;2023-02-10T00:04:00;4.70;99.90
19435;DHT22;9853;50.848;4.108;2023-02-10T00:06:37;4.80;99.90
19435;DHT22;9853;50.848;4.108;2023-02-10T00:12:55;4.60;99.90
19435;DHT22;9853;50.848;4.108;2023-02-10T00:30:37;4.40;99.90
19435;DHT22;9853;50.848;4.108;2023-02-10T00:39:04;4.50;99.90
19435;DHT22;9853;50.848;4.108;2023-02-10T00:50:38;4.20;99.90
19435;DHT22;9853;50.848;4.108;2023-02-10T00:53:03;4.20;99.90
19435;DHT22;9853;50.848;4.108;2023-02-10T01:13:00;4.40;99.90
19435;DHT22;9853;50.848;4.108;2023-02-10T02:39:57;3.20;99.90
19435;DHT22;9853;50.848;4.108;2023-02-10T02:45:16;3.20;99.90
19435;DHT22;9853;50.848;4.108;2023-02-10T02:53:27;3.20;99.90
19435;DHT22;9853;50.848;4.108;2023-02-10T02:58:50;3.20;99.90
19435;DHT22;9853;50.848;4.108;2023-02-10T03:00:59;3.30;99.90
19435;DHT22;9853;50.848;4.108;2023-02-10T03:03:11;3.20;99.90
19435;DHT22;9853;50.848;4.108;2023-02-10T03:05:28;3.30;99.90
19435;DHT22;9853;50.848;4.108;2023-02-10T03:07:58;3.50;99.90
19435;DHT22;9853;50.848;4.108;2023-02-10T03:10:26;3.40;99.90
19435;DHT22;9853;50.848;4.108;2023-02-10T03:15:48;3.40;99.90
19435;DHT22;9853;50.848;4.108;2023-02-10T03:23:44;3.50;99.90
19435;DHT22;9853;50.848;4.108;2023-02-10T03:29:10;3.30;99.90
19435;DHT22;9853;50.848;4.108;2023-02-10T03:31:16;3.20;99.90
19435;DHT22;9853;50.848;4.108;2023-02-10T03:33:33;3.30;99.90
19435;DHT22;9853;50.848;4.108;2023-02-10T03:36:12;3.40;99.90
19435;DHT22;9853;50.848;4.108;2023-02-10T03:38:32;3.40;99.90
19435;DHT22;9853;50.848;4.108;2023-02-10T03:40:36;3.30;99.90
19435;DHT22;9853;50.848;4.108;2023-02-10T03:42:46;3.40;99.90
19435;DHT22;9853;50.848;4.108;2023-02-10T03:44:51;3.40;99.90
19435;DHT22;9853;50.848;4.108;2023-02-10T03:54:17;3.50;99.90
19435;DHT22;9853;50.848;4.108;2023-02-10T03:56:32;3.50;99.90
19435;DHT22;9853;50.848;4.108;2023-02-10T04:04:16;3.40;99.90
19435;DHT22;9853;50.848;4.108;2023-02-10T04:10:49;3.10;99.90
19435;DHT22;9853;50.848;4.108;2023-02-10T04:19:39;3.20;99.90
19435;DHT22;9853;50.848;4.108;2023-02-10T04:24:44;3.10;99.90
19435;DHT22;9853;50.848;4.108;2023-02-10T04:27:20;3.00;99.90
19435;DHT22;9853;50.848;4.108;2023-02-10T04:29:44;3.00;99.90
19435;DHT22;9853;50.848;4.108;2023-02-10T04:32:41;3.00;99.90
19435;DHT22;9853;50.848;4.108;2023-02-10T04:35:17;3.10;99.90
19435;DHT22;9853;50.848;4.108;2023-02-10T04:38:09;3.10;99.90
19435;DHT22;9853;50.848;4.108;2023-02-10T04:40:20;3.10;99.90
19435;DHT22;9853;50.848;4.108;2023-02-10T04:42:36;3.20;99.90
19435;DHT22;9853;50.848;4.108;2023-02-10T04:50:24;2.90;99.90
19435;DHT22;9853;50.848;4.108;2023-02-10T04:53:23;3.00;99.90
19435;DHT22;9853;50.848;4.108;2023-02-10T04:55:54;2.90;99.90
19435;DHT22;9853;50.848;4.108;2023-02-10T04:58:14;3.00;99.90
19435;DHT22;9853;50.848;4.108;2023-02-10T05:03:05;3.30;99.90
19435;DHT22;9853;50.848;4.108;2023-02-10T05:05:48;3.40;99.90
19435;DHT22;9853;50.848;4.108;2023-02-10T05:08:06;3.30;99.90
19435;DHT22;9853;50.848;4.108;2023-02-10T05:11:01;3.30;99.90
19435;DHT22;9853;50.848;4.108;2023-02-10T05:13:08;3.20;99.90
19435;DHT22;9853;50.848;4.108;2023-02-10T05:15:16;2.90;99.90
19435;DHT22;9853;50.848;4.108;2023-02-10T05:17:17;2.90;99.90
19435;DHT22;9853;50.848;4.108;2023-02-10T05:21:35;2.70;99.90
19435;DHT22;9853;50.848;4.108;2023-02-10T05:24:36;2.80;99.90
19435;DHT22;9853;50.848;4.108;2023-02-10T05:26:45;2.70;99.90
19435;DHT22;9853;50.848;4.108;2023-02-10T05:29:18;2.50;99.90
19435;DHT22;9853;50.848;4.108;2023-02-10T05:31:19;2.50;99.90
19435;DHT22;9853;50.848;4.108;2023-02-10T05:33:46;2.40;99.90
19435;DHT22;9853;50.848;4.108;2023-02-10T05:36:23;2.50;99.90
19435;DHT22;9853;50.848;4.108;2023-02-10T05:38:26;2.80;99.90
19435;DHT22;9853;50.848;4.108;2023-02-10T05:40:31;2.80;99.90
19435;DHT22;9853;50.848;4.108;2023-02-10T05:42:36;2.70;99.90
19435;DHT22;9853;50.848;4.108;2023-02-10T05:44:39;2.70;99.90
19435;DHT22;9853;50.848;4.108;2023-02-10T05:46:48;2.60;99.90
19435;DHT22;9853;50.848;4.108;2023-02-10T05:48:51;2.60;99.90
19435;DHT22;9853;50.848;4.108;2023-02-10T05:50:57;2.80;99.90
19435;DHT22;9853;50.848;4.108;2023-02-10T05:52:58;2.70;99.90
19435;DHT22;9853;50.848;4.108;2023-02-10T05:55:26;2.70;99.90
19435;DHT22;9853;50.848;4.108;2023-02-10T05:57:36;2.80;99.90
19435;DHT22;9853;50.848;4.108;2023-02-10T05:59:50;2.80;99.90
19435;DHT22;9853;50.848;4.108;2023-02-10T06:02:18;2.80;99.90
19435;DHT22;9853;50.848;4.108;2023-02-10T06:04:34;2.80;99.90
19435;DHT22;9853;50.848;4.108;2023-02-10T06:06:45;2.80;99.90
19435;DHT22;9853;50.848;4.108;2023-02-10T06:09:10;2.80;99.90
19435;DHT22;9853;50.848;4.108;2023-02-10T06:11:19;2.80;99.90
19435;DHT22;9853;50.848;4.108;2023-02-10T06:13:50;2.70;99.90
19435;DHT22;9853;50.848;4.108;2023-02-10T06:16:19;2.70;99.90
19435;DHT22;9853;50.848;4.108;2023-02-10T06:18:42;2.60;99.90
19435;DHT22;9853;50.848;4.108;2023-02-10T06:21:58;2.60;99.90
19435;DHT22;9853;50.848;4.108;2023-02-10T06:26:24;2.40;99.90
19435;DHT22;9853;50.848;4.108;2023-02-10T06:31:07;2.40;99.90
19435;DHT22;9853;50.848;4.108;2023-02-10T06:33:16;2.40;99.90
19435;DHT22;9853;50.848;4.108;2023-02-10T06:35:37;2.30;99.90
19435;DHT22;9853;50.848;4.108;2023-02-10T06:37:47;2.40;99.90
19435;DHT22;9853;50.848;4.108;2023-02-10T06:39:53;2.30;99.90
19435;DHT22;9853;50.848;4.108;2023-02-10T06:41:56;2.40;99.90
19435;DHT22;9853;50.848;4.108;2023-02-10T06:44:20;2.70;99.90
19435;DHT22;9853;50.848;4.108;2023-02-10T06:46:39;2.60;99.90
19435;DHT22;9853;50.848;4.108;2023-02-10T06:50:56;2.50;99.90
19435;DHT22;9853;50.848;4.108;2023-02-10T06:53:19;2.60;99.90
19435;DHT22;9853;50.848;4.108;2023-02-10T06:56:01;2.90;99.90
19435;DHT22;9853;50.848;4.108;2023-02-10T06:58:17;2.80;99.90
19435;DHT22;9853;50.848;4.108;2023-02-10T07:00:38;3.00;99.90
19435;DHT22;9853;50.848;4.108;2023-02-10T07:02:54;3.10;99.90
19435;DHT22;9853;50.848;4.108;2023-02-10T07:04:58;2.90;99.90
19435;DHT22;9853;50.848;4.108;2023-02-10T07:07:05;2.80;99.90
19435;DHT22;9853;50.848;4.108;2023-02-10T07:09:18;2.70;99.90
19435;DHT22;9853;50.848;4.108;2023-02-10T07:11:23;2.80;99.90
19435;DHT22;9853;50.848;4.108;2023-02-10T07:13:48;3.10;99.90
19435;DHT22;9853;50.848;4.108;2023-02-10T07:16:20;3.00;99.90
19435;DHT22;9853;50.848;4.108;2023-02-10T07:18:51;3.00;99.90
19435;DHT22;9853;50.848;4.108;2023-02-10T07:20:58;3.00;99.90
19435;DHT22;9853;50.848;4.108;2023-02-10T07:22:58;3.20;99.90
19435;DHT22;9853;50.848;4.108;2023-02-10T07:24:59;3.10;99.90
19435;DHT22;9853;50.848;4.108;2023-02-10T07:27:25;3.10;99.90
19435;DHT22;9853;50.848;4.108;2023-02-10T07:29:53;3.20;99.90
19435;DHT22;9853;50.848;4.108;2023-02-10T07:31:59;3.30;99.90
19435;DHT22;9853;50.848;4.108;2023-02-10T07:34:11;3.30;99.90
19435;DHT22;9853;50.848;4.108;2023-02-10T07:36:50;3.40;99.90
19435;DHT22;9853;50.848;4.108;2023-02-10T07:39:17;3.20;99.90
19435;DHT22;9853;50.848;4.108;2023-02-10T07:41:58;3.00;99.90
19435;DHT22;9853;50.848;4.108;2023-02-10T07:44:32;2.90;99.90
19435;DHT22;9853;50.848;4.108;2023-02-10T07:46:45;3.10;99.90
19435;DHT22;9853;50.848;4.108;2023-02-10T07:49:02;3.20;99.90
19435;DHT22;9853;50.848;4.108;2023-02-10T07:51:03;3.40;99.90
19435;DHT22;9853;50.848;4.108;2023-02-10T07:53:07;3.40;99.90
19435;DHT22;9853;50.848;4.108;2023-02-10T07:55:35;3.40;99.90
19435;DHT22;9853;50.848;4.108;2023-02-10T07:57:45;3.70;99.90
19435;DHT22;9853;50.848;4.108;2023-02-10T07:59:52;3.70;99.90
19435;DHT22;9853;50.848;4.108;2023-02-10T08:02:09;3.80;99.90
19435;DHT22;9853;50.848;4.108;2023-02-10T08:04:12;3.80;99.90
19435;DHT22;9853;50.848;4.108;2023-02-10T08:06:43;4.00;99.90
19435;DHT22;9853;50.848;4.108;2023-02-10T08:09:19;4.10;99.90
19435;DHT22;9853;50.848;4.108;2023-02-10T08:11:43;4.30;99.90
19435;DHT22;9853;50.848;4.108;2023-02-10T08:13:55;4.20;99.90
19435;DHT22;9853;50.848;4.108;2023-02-10T08:16:06;4.20;99.90
19435;DHT22;9853;50.848;4.108;2023-02-10T08:18:48;4.10;99.90
19435;DHT22;9853;50.848;4.108;2023-02-10T08:20:52;4.20;99.90
19435;DHT22;9853;50.848;4.108;2023-02-10T08:23:18;4.50;99.90
19435;DHT22;9853;50.848;4.108;2023-02-10T08:25:52;4.60;99.90
19435;DHT22;9853;50.848;4.108;2023-02-10T08:28:02;4.80;99.90
19435;DHT22;9853;50.848;4.108;2023-02-10T08:30:17;4.80;99.90
19435;DHT22;9853;50.848;4.108;2023-02-10T08:32:27;4.90;99.90
19435;DHT22;9853;50.848;4.108;2023-02-10T08:34:33;5.00;99.90
19435;DHT22;9853;50.848;4.108;2023-02-10T08:37:22;5.00;99.90
19435;DHT22;9853;50.848;4.108;2023-02-10T08:39:23;5.00;99.90
19435;DHT22;9853;50.848;4.108;2023-02-10T08:41:53;5.10;99.90
19435;DHT22;9853;50.848;4.108;2023-02-10T08:44:27;5.10;99.90
19435;DHT22;9853;50.848;4.108;2023-02-10T08:46:50;5.20;99.90
19435;DHT22;9853;50.848;4.108;2023-02-10T08:49:08;5.00;99.90
19435;DHT22;9853;50.848;4.108;2023-02-10T08:51:24;4.80;99.90
19435;DHT22;9853;50.848;4.108;2023-02-10T08:53:53;5.10;99.90
19435;DHT22;9853;50.848;4.108;2023-02-10T08:56:27;5.30;99.90
19435;DHT22;9853;50.848;4.108;2023-02-10T08:58:47;5.00;99.90
19435;DHT22;9853;50.848;4.108;2023-02-10T09:01:16;5.20;99.90
19435;DHT22;9853;50.848;4.108;2023-02-10T09:03:18;5.10;99.90
19435;DHT22;9853;50.848;4.108;2023-02-10T09:05:25;5.00;99.90
19435;DHT22;9853;50.848;4.108;2023-02-10T09:07:58;5.10;99.90
19435;DHT22;9853;50.848;4.108;2023-02-10T09:10:12;5.30;99.90
19435;DHT22;9853;50.848;4.108;2023-02-10T09:12:13;5.40;99.90
19435;DHT22;9853;50.848;4.108;2023-02-10T09:14:17;5.50;99.90
19435;DHT22;9853;50.848;4.108;2023-02-10T09:16:36;5.50;99.90
19435;DHT22;9853;50.848;4.108;2023-02-10T09:19:07;5.50;99.90
19435;DHT22;9853;50.848;4.108;2023-02-10T09:21:13;5.50;99.90
19435;DHT22;9853;50.848;4.108;2023-02-10T09:23:17;5.50;99.90
19435;DHT22;9853;50.848;4.108;2023-02-10T09:25:35;5.60;99.90
19435;DHT22;9853;50.848;4.108;2023-02-10T09:28:04;5.80;99.90
19435;DHT22;9853;50.848;4.108;2023-02-10T09:30:27;5.90;99.90
19435;DHT22;9853;50.848;4.108;2023-02-10T09:32:30;6.00;99.90
19435;DHT22;9853;50.848;4.108;2023-02-10T09:35:11;6.10;99.90
19435;DHT22;9853;50.848;4.108;2023-02-10T09:37:14;6.10;99.90
19435;DHT22;9853;50.848;4.108;2023-02-10T09:39:48;6.10;99.90
19435;DHT22;9853;50.848;4.108;2023-02-10T09:45:10;6.10;99.90
19435;DHT22;9853;50.848;4.108;2023-02-10T09:47:52;6.30;99.90
19435;DHT22;9853;50.848;4.108;2023-02-10T09:50:33;6.20;99.90
19435;DHT22;9853;50.848;4.108;2023-02-10T09:53:18;6.10;99.90
19435;DHT22;9853;50.848;4.108;2023-02-10T09:56:00;6.00;99.90
19435;DHT22;9853;50.848;4.108;2023-02-10T10:01:40;5.90;99.90
19435;DHT22;9853;50.848;4.108;2023-02-10T10:04:10;6.10;99.90
19435;DHT22;9853;50.848;4.108;2023-02-10T10:06:46;6.30;99.90
19435;DHT22;9853;50.848;4.108;2023-02-10T10:09:40;6.20;99.90
19435;DHT22;9853;50.848;4.108;2023-02-10T10:12:25;6.40;99.90
19435;DHT22;9853;50.848;4.108;2023-02-10T10:14:42;6.40;99.90
19435;DHT22;9853;50.848;4.108;2023-02-10T10:34:18;6.10;99.90
19435;DHT22;9853;50.848;4.108;2023-02-10T10:37:20;6.20;99.90
19435;DHT22;9853;50.848;4.108;2023-02-10T10:40:52;6.50;99.90
19435;DHT22;9853;50.848;4.108;2023-02-10T10:43:47;6.70;99.90
19435;DHT22;9853;50.848;4.108;2023-02-10T10:49:27;6.90;99.90
19435;DHT22;9853;50.848;4.108;2023-02-10T10:52:35;7.10;99.90
19435;DHT22;9853;50.848;4.108;2023-02-10T10:56:01;7.00;99.90
19435;DHT22;9853;50.848;4.108;2023-02-10T11:01:51;6.90;99.90
19435;DHT22;9853;50.848;4.108;2023-02-10T11:08:44;7.10;99.90
19435;DHT22;9853;50.848;4.108;2023-02-10T11:24:55;7.50;99.90
19435;DHT22;9853;50.848;4.108;2023-02-10T11:27:15;7.60;99.90
19435;DHT22;9853;50.848;4.108;2023-02-10T11:29:49;7.60;99.90
